createdAt,value
2022-07-25T00:02:02.396Z,86.62
2022-07-25T00:04:30.398Z,86.86
2022-07-25T00:06:58.224Z,86.89
2022-07-25T00:09:25.988Z,87.52
2022-07-25T00:11:53.734Z,86.91
2022-07-25T00:14:21.483Z,86.57
2022-07-25T00:16:50.626Z,87.13
2022-07-25T00:19:18.498Z,87.37
2022-07-25T00:21:46.527Z,87.09
2022-07-25T00:24:14.263Z,86.84
2022-07-25T00:26:42.000Z,86.91
2022-07-25T00:29:11.274Z,87.54
2022-07-25T00:31:39.033Z,87.46
2022-07-25T00:34:08.672Z,87.83
2022-07-25T00:36:36.988Z,88.48
2022-07-25T00:39:04.958Z,89.33
2022-07-25T00:41:32.851Z,90.48
2022-07-25T00:44:00.643Z,91.39
2022-07-25T00:46:28.396Z,90.47
2022-07-25T00:48:56.276Z,89.61
2022-07-25T00:51:26.307Z,88.84
2022-07-25T00:53:54.059Z,88.44
2022-07-25T00:56:21.764Z,88.57
2022-07-25T00:58:49.632Z,88.86
2022-07-25T01:01:17.547Z,88.19
2022-07-25T01:03:45.347Z,88.53
2022-07-25T01:06:13.242Z,88.70
2022-07-25T01:08:42.902Z,88.89
2022-07-25T01:11:11.695Z,90.04
2022-07-25T01:13:39.580Z,90.80
2022-07-25T01:16:07.671Z,92.01
2022-07-25T01:18:35.611Z,91.79
2022-07-25T01:21:05.130Z,92.56
2022-07-25T01:23:32.986Z,92.43
2022-07-25T01:26:00.874Z,91.69
2022-07-25T01:28:29.104Z,91.63
2022-07-25T01:30:56.853Z,91.36
2022-07-25T01:33:24.622Z,90.81
2022-07-25T01:35:52.697Z,90.21
2022-07-25T01:38:22.035Z,89.94
2022-07-25T01:40:49.888Z,89.52
2022-07-25T01:43:17.704Z,89.48
2022-07-25T01:45:45.411Z,88.94
2022-07-25T01:48:13.407Z,90.42
2022-07-25T01:50:41.173Z,91.06
2022-07-25T01:53:08.897Z,91.17
2022-07-25T01:55:38.040Z,91.01
2022-07-25T01:58:06.368Z,91.62
2022-07-25T02:00:35.667Z,91.31
2022-07-25T02:03:21.306Z,91.92
2022-07-25T02:05:49.045Z,92.13
2022-07-25T02:08:16.895Z,92.47
2022-07-25T02:10:46.347Z,92.58
2022-07-25T02:13:14.144Z,92.45
2022-07-25T02:15:41.904Z,92.69
2022-07-25T02:18:09.763Z,92.39
2022-07-25T02:20:37.528Z,91.70
2022-07-25T02:23:05.938Z,90.74
2022-07-25T02:25:34.199Z,91.33
2022-07-25T02:28:03.251Z,91.64
2022-07-25T02:30:31.088Z,92.21
2022-07-25T02:32:58.966Z,91.61
2022-07-25T02:35:26.924Z,91.04
2022-07-25T02:37:54.633Z,90.65
2022-07-25T02:40:22.884Z,90.83
2022-07-25T02:42:50.592Z,92.38
2022-07-25T02:45:19.880Z,92.86
2022-07-25T02:47:47.712Z,93.22
2022-07-25T02:50:15.473Z,93.58
2022-07-25T02:52:43.318Z,93.26
2022-07-25T02:55:11.761Z,92.85
2022-07-25T02:57:39.489Z,92.88
2022-07-25T03:00:08.654Z,92.71
2022-07-25T03:02:37.874Z,92.08
2022-07-25T03:05:42.900Z,92.51
2022-07-25T03:08:10.831Z,92.62
2022-07-25T03:10:38.511Z,92.08
2022-07-25T03:13:06.274Z,92.12
2022-07-25T03:15:34.131Z,92.01
2022-07-25T03:18:03.188Z,91.85
2022-07-25T03:20:30.877Z,91.00
2022-07-25T03:22:58.696Z,91.63
2022-07-25T03:25:26.487Z,91.52
2022-07-25T03:27:54.208Z,91.46
2022-07-25T03:30:22.189Z,92.28
2022-07-25T03:32:50.183Z,92.37
2022-07-25T03:35:19.190Z,92.42
2022-07-25T03:37:47.077Z,93.12
2022-07-25T03:40:15.929Z,93.41
2022-07-25T03:42:44.048Z,93.77
2022-07-25T03:45:12.262Z,93.05
2022-07-25T03:47:39.981Z,93.23
2022-07-25T03:50:08.216Z,93.02
2022-07-25T03:52:38.461Z,92.92
2022-07-25T03:55:07.448Z,92.92
2022-07-25T03:57:35.113Z,92.79
2022-07-25T04:00:04.317Z,92.55
2022-07-25T04:02:32.109Z,92.78
2022-07-25T04:05:00.095Z,92.66
2022-07-25T04:07:28.109Z,92.88
2022-07-25T04:09:57.181Z,92.51
2022-07-25T04:12:25.037Z,92.23
2022-07-25T04:14:52.836Z,92.25
2022-07-25T04:17:20.693Z,91.85
2022-07-25T04:19:49.391Z,91.70
2022-07-25T04:22:17.075Z,91.44
2022-07-25T04:24:45.155Z,90.92
2022-07-25T04:27:14.336Z,91.04
2022-07-25T04:29:42.055Z,90.46
2022-07-25T04:32:09.818Z,90.25
2022-07-25T04:34:37.695Z,90.59
2022-07-25T04:37:05.412Z,90.67
2022-07-25T04:39:33.111Z,90.43
2022-07-25T04:42:01.451Z,89.98
2022-07-25T04:44:30.525Z,90.23
2022-07-25T04:46:58.241Z,89.55
2022-07-25T04:49:25.921Z,89.38
2022-07-25T04:51:53.633Z,88.97
2022-07-25T04:54:21.390Z,89.23
2022-07-25T04:56:49.160Z,88.99
2022-07-25T04:59:17.736Z,87.98
2022-07-25T05:01:46.957Z,87.92
2022-07-25T05:04:14.807Z,87.71
2022-07-25T05:06:42.537Z,87.03
2022-07-25T05:09:10.602Z,85.75
2022-07-25T05:11:39.723Z,84.93
2022-07-25T05:14:09.510Z,85.04
2022-07-25T05:16:37.561Z,85.13
2022-07-25T05:19:06.701Z,84.63
2022-07-25T05:21:34.503Z,84.25
2022-07-25T05:24:02.182Z,83.88
2022-07-25T05:26:29.958Z,83.41
2022-07-25T05:28:58.425Z,82.68
2022-07-25T05:31:26.188Z,82.69
2022-07-25T05:33:53.921Z,82.27
2022-07-25T05:36:22.967Z,81.33
2022-07-25T05:38:50.697Z,80.71
2022-07-25T05:41:18.441Z,79.99
2022-07-25T05:43:47.693Z,80.91
2022-07-25T05:46:16.613Z,81.71
2022-07-25T05:48:44.669Z,80.73
2022-07-25T05:51:13.024Z,80.01
2022-07-25T05:53:42.104Z,78.79
2022-07-25T05:56:10.715Z,78.15
2022-07-25T05:58:40.501Z,78.29
2022-07-25T06:01:08.722Z,77.41
2022-07-25T06:03:36.470Z,78.10
2022-07-25T06:06:04.272Z,78.44
2022-07-25T06:08:31.986Z,78.14
2022-07-25T06:11:04.040Z,76.36
2022-07-25T06:13:32.910Z,75.08
2022-07-25T06:16:02.701Z,74.05
2022-07-25T06:18:30.535Z,74.70
2022-07-25T06:20:58.560Z,74.09
2022-07-25T06:23:27.714Z,73.58
2022-07-25T06:25:55.669Z,72.87
2022-07-25T06:28:24.910Z,71.42
2022-07-25T06:30:52.717Z,72.82
2022-07-25T06:33:20.432Z,72.57
2022-07-25T06:35:48.256Z,72.08
2022-07-25T06:38:16.016Z,71.24
2022-07-25T06:40:43.957Z,71.19
2022-07-25T06:43:11.697Z,71.79
2022-07-25T06:45:42.963Z,71.32
2022-07-25T06:48:10.660Z,71.01
2022-07-25T06:50:38.646Z,71.67
2022-07-25T06:53:07.054Z,69.47
2022-07-25T06:55:39.350Z,71.12
2022-07-25T06:58:07.250Z,69.81
2022-07-25T07:00:35.041Z,68.58
2022-07-25T07:03:04.211Z,69.02
2022-07-25T07:05:35.281Z,67.70
2022-07-25T07:08:03.646Z,67.77
2022-07-25T07:10:31.895Z,68.34
2022-07-25T07:13:08.112Z,67.03
2022-07-25T07:15:36.462Z,65.39
2022-07-25T07:18:07.977Z,65.41
2022-07-25T07:20:36.164Z,65.71
2022-07-25T07:23:04.074Z,65.91
2022-07-25T07:25:33.780Z,65.50
2022-07-25T07:28:01.912Z,64.38
2022-07-25T07:30:58.676Z,64.12
2022-07-25T07:33:19.459Z,63.67
2022-07-25T07:35:47.457Z,61.97
2022-07-25T07:38:15.327Z,61.53
2022-07-25T07:40:44.294Z,61.41
2022-07-25T07:43:12.379Z,59.61
2022-07-25T07:45:40.281Z,60.43
2022-07-25T07:48:08.513Z,60.05
2022-07-25T07:50:38.019Z,59.50
2022-07-25T07:53:06.869Z,60.19
2022-07-25T07:55:46.491Z,57.57
2022-07-25T07:58:17.644Z,56.49
2022-07-25T08:00:46.689Z,57.22
2022-07-25T08:03:14.966Z,56.13
2022-07-25T08:05:45.903Z,55.61
2022-07-25T08:08:15.166Z,53.29
2022-07-25T08:10:44.923Z,53.94
2022-07-25T08:13:16.773Z,53.54
2022-07-25T08:15:45.858Z,53.45
2022-07-25T08:18:17.186Z,51.68
2022-07-25T08:20:47.462Z,52.27
2022-07-25T08:23:15.623Z,52.36
2022-07-25T08:25:43.924Z,51.30
2022-07-25T08:28:11.937Z,50.81
2022-07-25T08:30:40.661Z,51.07
2022-07-25T08:33:10.930Z,50.93
2022-07-25T08:35:40.214Z,49.65
2022-07-25T08:38:11.550Z,48.79
2022-07-25T08:40:39.386Z,48.93
2022-07-25T08:43:07.541Z,48.51
2022-07-25T08:45:35.247Z,47.78
2022-07-25T08:48:02.973Z,49.17
2022-07-25T08:50:30.896Z,50.29
2022-07-25T08:53:30.288Z,50.21
2022-07-25T08:55:48.079Z,49.80
2022-07-25T08:58:17.422Z,49.03
2022-07-25T09:00:45.336Z,49.31
2022-07-25T09:03:13.522Z,48.87
2022-07-25T09:05:41.758Z,49.57
2022-07-25T09:08:11.051Z,48.94
2022-07-25T09:10:39.824Z,47.08
2022-07-25T09:13:14.037Z,47.95
2022-07-25T09:15:45.176Z,49.37
2022-07-25T09:18:16.872Z,47.19
2022-07-25T09:20:46.598Z,45.77
2022-07-25T09:23:15.704Z,47.08
2022-07-25T09:25:43.997Z,46.64
2022-07-25T09:28:14.922Z,46.84
2022-07-25T09:30:55.453Z,46.25
2022-07-25T09:33:23.735Z,45.76
2022-07-25T09:35:51.650Z,46.34
2022-07-25T09:38:20.024Z,47.39
2022-07-25T09:40:55.620Z,47.01
2022-07-25T09:43:25.408Z,46.73
2022-07-25T09:45:53.485Z,44.56
2022-07-25T09:48:21.498Z,44.67
2022-07-25T09:50:49.388Z,45.35
2022-07-25T09:53:17.108Z,45.48
2022-07-25T09:55:44.977Z,45.18
2022-07-25T09:58:13.940Z,44.31
2022-07-25T10:00:43.681Z,44.46
2022-07-25T10:03:20.260Z,44.46
2022-07-25T10:06:00.804Z,45.33
2022-07-25T10:08:28.861Z,45.98
2022-07-25T10:10:56.676Z,45.54
2022-07-25T10:13:31.537Z,44.96
2022-07-25T10:16:00.644Z,44.15
2022-07-25T10:18:29.728Z,42.83
2022-07-25T10:21:24.889Z,44.41
2022-07-25T10:24:02.670Z,43.96
2022-07-25T10:26:30.882Z,42.31
2022-07-25T10:28:59.508Z,42.15
2022-07-25T10:31:37.084Z,43.54
2022-07-25T10:34:06.720Z,42.49
2022-07-25T10:36:46.464Z,43.45
2022-07-25T10:39:16.800Z,43.88
2022-07-25T10:41:46.307Z,42.72
2022-07-25T10:44:15.816Z,42.32
2022-07-25T10:46:46.133Z,42.26
2022-07-25T10:49:19.897Z,41.94
2022-07-25T10:51:56.133Z,41.92
2022-07-25T10:54:24.342Z,42.87
2022-07-25T10:56:54.584Z,44.08
2022-07-25T10:59:34.443Z,43.48
2022-07-25T11:02:05.220Z,42.57
2022-07-25T11:04:33.095Z,41.16
2022-07-25T11:07:09.559Z,42.10
2022-07-25T11:09:37.431Z,42.22
2022-07-25T11:12:06.090Z,42.71
2022-07-25T11:14:37.507Z,42.40
2022-07-25T11:17:15.586Z,42.77
2022-07-25T11:19:44.371Z,43.31
2022-07-25T11:22:12.433Z,43.50
2022-07-25T11:24:42.040Z,42.15
2022-07-25T11:27:12.255Z,44.24
2022-07-25T11:29:41.117Z,43.18
2022-07-25T11:32:10.418Z,42.22
2022-07-25T11:34:41.674Z,42.45
2022-07-25T11:37:10.072Z,44.25
2022-07-25T11:39:41.040Z,42.78
2022-07-25T11:42:11.199Z,41.27
2022-07-25T11:44:45.641Z,42.94
2022-07-25T11:47:24.843Z,41.67
2022-07-25T11:49:55.210Z,41.96
2022-07-25T11:52:24.415Z,42.14
2022-07-25T11:54:56.664Z,42.72
2022-07-25T11:57:25.601Z,42.04
2022-07-25T11:59:53.663Z,43.21
2022-07-25T12:02:25.737Z,42.89
2022-07-25T12:04:59.729Z,41.06
2022-07-25T12:07:41.623Z,41.17
2022-07-25T12:10:11.099Z,41.27
2022-07-25T12:12:51.356Z,42.85
2022-07-25T12:15:21.286Z,41.97
2022-07-25T12:17:49.432Z,41.83
2022-07-25T12:20:20.058Z,41.95
2022-07-25T12:22:48.680Z,41.22
2022-07-25T12:25:16.621Z,41.62
2022-07-25T12:27:44.508Z,41.35
2022-07-25T12:30:13.463Z,41.08
2022-07-25T12:32:41.845Z,40.65
2022-07-25T12:35:11.066Z,41.28
2022-07-25T12:37:41.481Z,41.71
2022-07-25T12:40:10.709Z,41.31
2022-07-25T12:42:38.480Z,39.99
2022-07-25T12:45:14.763Z,40.82
2022-07-25T12:47:43.844Z,41.01
2022-07-25T12:50:11.633Z,41.13
2022-07-25T12:52:41.444Z,39.21
2022-07-25T12:55:11.350Z,38.88
2022-07-25T12:57:39.627Z,38.52
2022-07-25T13:00:10.149Z,40.23
2022-07-25T13:02:38.219Z,39.00
2022-07-25T13:05:08.196Z,39.26
2022-07-25T13:07:36.071Z,39.84
2022-07-25T13:10:06.355Z,39.48
2022-07-25T13:12:34.140Z,40.19
2022-07-25T13:15:02.425Z,39.29
2022-07-25T13:17:30.191Z,38.44
2022-07-25T13:19:57.973Z,38.96
2022-07-25T13:22:26.402Z,38.25
2022-07-25T13:24:54.883Z,39.21
2022-07-25T13:27:24.237Z,37.63
2022-07-25T13:29:55.952Z,37.91
2022-07-25T13:32:24.044Z,37.66
2022-07-25T13:34:51.783Z,36.85
2022-07-25T13:37:19.676Z,37.22
2022-07-25T13:39:47.413Z,36.87
2022-07-25T13:42:15.170Z,36.21
2022-07-25T13:44:44.292Z,36.63
2022-07-25T13:47:12.227Z,36.04
2022-07-25T13:49:40.739Z,35.34
2022-07-25T13:52:08.534Z,34.86
2022-07-25T13:54:36.265Z,35.72
2022-07-25T13:57:04.746Z,34.17
2022-07-25T13:59:32.513Z,33.33
2022-07-25T14:02:01.706Z,32.42
2022-07-25T14:04:30.261Z,33.07
2022-07-25T14:06:58.334Z,34.37
2022-07-25T14:09:26.049Z,33.36
2022-07-25T14:11:53.743Z,32.49
2022-07-25T14:14:21.459Z,31.57
2022-07-25T14:16:49.978Z,31.51
2022-07-25T14:19:19.186Z,31.78
2022-07-25T14:21:46.920Z,31.69
2022-07-25T14:24:14.717Z,31.23
2022-07-25T14:26:42.442Z,30.26
2022-07-25T14:29:11.253Z,31.07
2022-07-25T14:31:40.458Z,29.43
2022-07-25T14:34:08.726Z,29.57
2022-07-25T14:36:37.792Z,29.62
2022-07-25T14:39:06.250Z,29.91
2022-07-25T14:41:34.814Z,28.83
2022-07-25T14:44:02.685Z,28.37
2022-07-25T14:46:30.996Z,28.57
2022-07-25T14:48:59.033Z,28.47
2022-07-25T14:51:26.866Z,28.56
2022-07-25T14:53:57.061Z,31.14
2022-07-25T14:56:29.209Z,31.51
2022-07-25T14:58:57.218Z,32.05
2022-07-25T15:01:25.653Z,32.21
2022-07-25T15:03:56.114Z,32.26
2022-07-25T15:06:28.757Z,33.47
2022-07-25T15:08:58.370Z,31.24
2022-07-25T15:11:26.146Z,32.17
2022-07-25T15:13:54.039Z,31.91
2022-07-25T15:16:22.184Z,31.11
2022-07-25T15:19:14.419Z,31.13
2022-07-25T15:21:39.603Z,32.05
2022-07-25T15:24:08.909Z,32.25
2022-07-25T15:26:37.432Z,32.64
2022-07-25T15:29:08.216Z,32.26
2022-07-25T15:31:36.564Z,31.85
2022-07-25T15:34:04.394Z,31.78
2022-07-25T15:36:32.142Z,32.48
2022-07-25T15:38:59.848Z,31.87
2022-07-25T15:41:29.029Z,32.46
2022-07-25T15:43:56.740Z,32.65
2022-07-25T15:46:24.609Z,32.32
2022-07-25T15:48:52.777Z,32.81
2022-07-25T15:51:20.646Z,33.71
2022-07-25T15:53:48.391Z,34.60
2022-07-25T15:56:16.856Z,34.30
2022-07-25T15:58:49.157Z,33.69
2022-07-25T16:01:17.105Z,33.32
2022-07-25T16:03:45.409Z,33.59
2022-07-25T16:06:18.666Z,33.52
2022-07-25T16:08:46.873Z,33.98
2022-07-25T16:11:14.590Z,34.10
2022-07-25T16:13:42.521Z,32.26
2022-07-25T16:16:12.132Z,31.94
2022-07-25T16:18:39.827Z,31.60
2022-07-25T16:21:07.936Z,31.56
2022-07-25T16:23:41.539Z,31.63
2022-07-25T16:26:14.722Z,32.28
2022-07-25T16:28:42.461Z,32.12
2022-07-25T16:31:11.567Z,32.17
2022-07-25T16:33:39.580Z,32.37
2022-07-25T16:36:08.026Z,32.94
2022-07-25T16:38:35.823Z,33.99
2022-07-25T16:41:03.733Z,33.83
2022-07-25T16:43:31.451Z,33.82
2022-07-25T16:45:59.194Z,33.30
2022-07-25T16:48:28.416Z,34.26
2022-07-25T16:50:56.627Z,34.74
2022-07-25T16:53:24.337Z,34.85
2022-07-25T16:55:52.370Z,35.19
2022-07-25T16:58:20.126Z,35.57
2022-07-25T17:00:48.000Z,35.54
2022-07-25T17:03:16.291Z,36.02
2022-07-25T17:05:46.905Z,36.54
2022-07-25T17:08:14.610Z,36.11
2022-07-25T17:10:42.319Z,36.67
2022-07-25T17:13:10.041Z,36.77
2022-07-25T17:15:38.001Z,36.70
2022-07-25T17:18:06.005Z,37.17
2022-07-25T17:20:33.719Z,37.17
2022-07-25T17:23:02.881Z,37.47
2022-07-25T17:25:30.804Z,37.33
2022-07-25T17:27:58.966Z,38.33
2022-07-25T17:30:26.806Z,38.91
2022-07-25T17:32:54.547Z,39.22
2022-07-25T17:35:23.870Z,39.86
2022-07-25T17:37:51.620Z,39.50
2022-07-25T17:40:21.184Z,39.13
2022-07-25T17:42:48.915Z,39.98
2022-07-25T17:45:16.997Z,40.16
2022-07-25T17:47:45.304Z,40.95
2022-07-25T17:50:14.063Z,40.50
2022-07-25T17:52:41.763Z,41.04
2022-07-25T17:55:12.978Z,41.58
2022-07-25T17:57:43.379Z,42.01
2022-07-25T18:00:12.609Z,42.55
2022-07-25T18:02:40.848Z,44.49
2022-07-25T18:05:09.566Z,44.91
2022-07-25T18:07:41.173Z,43.55
2022-07-25T18:10:09.754Z,45.30
2022-07-25T18:12:37.774Z,45.00
2022-07-25T18:15:10.201Z,46.19
2022-07-25T18:17:37.929Z,46.74
2022-07-25T18:20:06.078Z,47.04
2022-07-25T18:22:33.864Z,48.08
2022-07-25T18:25:01.622Z,48.51
2022-07-25T18:27:29.499Z,49.52
2022-07-25T18:29:57.220Z,49.60
2022-07-25T18:32:26.386Z,50.44
2022-07-25T18:34:54.115Z,50.69
2022-07-25T18:37:23.000Z,50.96
2022-07-25T18:39:50.731Z,51.03
2022-07-25T18:42:18.523Z,51.01
2022-07-25T18:44:46.385Z,51.31
2022-07-25T18:47:15.130Z,51.91
2022-07-25T18:49:44.340Z,51.62
2022-07-25T18:52:12.137Z,51.87
2022-07-25T18:54:39.864Z,51.77
2022-07-25T18:57:07.650Z,52.10
2022-07-25T18:59:35.364Z,52.38
2022-07-25T19:02:03.338Z,52.46
2022-07-25T19:04:31.137Z,52.76
2022-07-25T19:07:00.294Z,53.32
2022-07-25T19:09:28.052Z,53.65
2022-07-25T19:11:56.570Z,54.50
2022-07-25T19:14:27.198Z,54.67
2022-07-25T19:16:55.094Z,55.01
2022-07-25T19:19:22.809Z,55.68
2022-07-25T19:21:50.685Z,55.73
2022-07-25T19:24:19.797Z,56.15
2022-07-25T19:26:48.245Z,56.61
2022-07-25T19:29:18.092Z,56.58
2022-07-25T19:31:45.859Z,56.57
2022-07-25T19:34:13.539Z,57.31
2022-07-25T19:36:43.860Z,57.24
2022-07-25T19:39:12.417Z,57.60
2022-07-25T19:41:46.301Z,58.13
2022-07-25T19:44:15.204Z,58.59
2022-07-25T19:46:42.997Z,58.99
2022-07-25T19:49:10.852Z,59.33
2022-07-25T19:51:39.227Z,59.60
2022-07-25T19:54:08.930Z,59.77
2022-07-25T19:56:37.053Z,59.87
2022-07-25T19:59:06.317Z,60.06
2022-07-25T20:01:35.761Z,60.55
2022-07-25T20:04:05.442Z,61.22
2022-07-25T20:06:33.593Z,61.82
2022-07-25T20:09:04.032Z,62.31
2022-07-25T20:11:32.474Z,62.05
2022-07-25T20:14:01.273Z,62.83
2022-07-25T20:16:30.833Z,63.19
2022-07-25T20:18:58.579Z,63.44
2022-07-25T20:21:26.323Z,63.86
2022-07-25T20:23:54.006Z,64.36
2022-07-25T20:26:21.770Z,64.71
2022-07-25T20:28:49.677Z,64.47
2022-07-25T20:31:22.160Z,64.45
2022-07-25T20:33:51.815Z,64.68
2022-07-25T20:36:20.185Z,64.81
2022-07-25T20:38:47.938Z,64.55
2022-07-25T20:41:16.281Z,64.15
2022-07-25T20:43:44.084Z,63.50
2022-07-25T20:46:11.847Z,63.35
2022-07-25T20:48:39.600Z,63.25
2022-07-25T20:51:08.832Z,63.21
2022-07-25T20:53:36.556Z,62.75
2022-07-25T20:56:04.496Z,62.69
2022-07-25T20:58:32.686Z,62.25
2022-07-25T21:01:00.747Z,62.03
2022-07-25T21:03:28.543Z,61.90
2022-07-25T21:05:56.311Z,61.33
2022-07-25T21:08:25.404Z,61.12
2022-07-25T21:10:53.809Z,61.04
2022-07-25T21:13:21.603Z,60.88
2022-07-25T21:15:49.300Z,61.04
2022-07-25T21:18:19.296Z,61.23
2022-07-25T21:20:47.297Z,61.92
2022-07-25T21:23:15.387Z,63.66
2022-07-25T21:25:44.567Z,64.47
2022-07-25T21:28:12.279Z,64.49
2022-07-25T21:30:41.085Z,64.15
2022-07-25T21:33:14.195Z,64.33
2022-07-25T21:35:49.379Z,63.94
2022-07-25T21:38:27.302Z,64.07
2022-07-25T21:40:58.703Z,64.63
2022-07-25T21:43:26.728Z,64.88
2022-07-25T21:45:54.566Z,65.09
2022-07-25T21:48:43.365Z,65.37
2022-07-25T21:51:10.386Z,65.57
2022-07-25T21:53:47.778Z,65.21
2022-07-25T21:56:17.023Z,64.98
2022-07-25T21:58:44.943Z,65.07
2022-07-25T22:01:12.890Z,64.66
2022-07-25T22:03:41.409Z,64.88
2022-07-25T22:06:10.416Z,66.26
2022-07-25T22:08:39.462Z,67.34
2022-07-25T22:11:15.812Z,66.84
2022-07-25T22:13:56.625Z,66.19
2022-07-25T22:16:24.500Z,65.88
2022-07-25T22:18:52.268Z,65.19
2022-07-25T22:21:20.114Z,65.10
2022-07-25T22:23:47.832Z,64.41
2022-07-25T22:26:15.608Z,64.59
2022-07-25T22:28:43.514Z,64.95
2022-07-25T22:31:13.236Z,65.35
2022-07-25T22:33:41.251Z,65.12
2022-07-25T22:36:09.410Z,65.07
2022-07-25T22:38:37.800Z,65.20
2022-07-25T22:41:05.744Z,65.02
2022-07-25T22:43:56.828Z,65.02
2022-07-25T22:46:22.722Z,65.30
2022-07-25T22:48:50.665Z,65.46
2022-07-25T22:51:18.486Z,65.33
2022-07-25T22:53:46.230Z,65.14
2022-07-25T22:56:14.052Z,65.48
2022-07-25T22:58:41.847Z,65.77
2022-07-25T23:01:10.213Z,65.58
2022-07-25T23:03:39.621Z,65.77
2022-07-25T23:06:08.142Z,65.85
2022-07-25T23:08:35.897Z,65.25
2022-07-25T23:11:06.212Z,64.93
2022-07-25T23:13:34.130Z,64.80
2022-07-25T23:16:03.385Z,64.88
2022-07-25T23:18:31.562Z,64.57
2022-07-25T23:21:00.682Z,64.41
2022-07-25T23:23:28.535Z,64.33
2022-07-25T23:25:56.354Z,64.77
2022-07-25T23:28:24.269Z,64.94
2022-07-25T23:30:52.023Z,65.08
2022-07-25T23:33:25.304Z,65.82
2022-07-25T23:35:54.072Z,65.79
2022-07-25T23:38:23.707Z,65.66
2022-07-25T23:40:53.992Z,65.55
2022-07-25T23:43:56.018Z,65.72
2022-07-25T23:46:09.829Z,66.19
2022-07-25T23:48:39.453Z,66.02
2022-07-25T23:51:07.814Z,66.97
2022-07-25T23:53:37.652Z,67.60
2022-07-25T23:56:05.941Z,67.59
2022-07-25T23:58:40.154Z,68.09
